createdAt,value
2023-06-10T00:01:15.132Z,4.37
2023-06-10T00:04:17.931Z,3.47
2023-06-10T00:07:20.156Z,5.43
2023-06-10T00:10:22.469Z,3.50
2023-06-10T00:13:25.096Z,3.78
2023-06-10T00:16:27.454Z,6.22
2023-06-10T00:19:32.809Z,6.05
2023-06-10T00:22:34.972Z,5.07
2023-06-10T00:25:37.239Z,6.90
2023-06-10T00:28:39.415Z,2.78
2023-06-10T00:31:41.758Z,5.23
2023-06-10T00:34:43.984Z,5.07
2023-06-10T00:37:46.466Z,3.65
2023-06-10T00:40:48.772Z,4.60
2023-06-10T00:43:53.998Z,3.55
2023-06-10T00:46:57.118Z,3.03
2023-06-10T00:49:59.624Z,4.90
2023-06-10T00:53:01.856Z,4.93
2023-06-10T00:56:04.742Z,4.68
2023-06-10T00:59:07.684Z,3.80
2023-06-10T01:02:10.437Z,4.73
2023-06-10T01:05:13.220Z,3.15
2023-06-10T01:08:47.771Z,4.65
2023-06-10T01:11:59.572Z,3.60
2023-06-10T01:15:03.623Z,3.53
2023-06-10T01:18:10.606Z,3.72
2023-06-10T01:21:25.758Z,5.07
2023-06-10T01:24:29.429Z,3.35
2023-06-10T01:27:34.652Z,5.45
2023-06-10T01:30:57.516Z,5.82
2023-06-10T01:33:59.845Z,3.80
2023-06-10T01:37:02.924Z,3.42
2023-06-10T01:40:07.205Z,2.40
2023-06-10T01:43:10.979Z,4.23
2023-06-10T01:46:13.352Z,4.00
2023-06-10T01:49:15.850Z,4.78
2023-06-10T01:52:19.798Z,3.85
2023-06-10T01:55:22.031Z,3.42
2023-06-10T01:58:24.242Z,4.30
2023-06-10T02:01:27.142Z,5.00
2023-06-10T02:04:29.303Z,3.30
2023-06-10T02:07:31.498Z,3.63
2023-06-10T02:10:33.687Z,5.78
2023-06-10T02:13:36.002Z,6.23
2023-06-10T02:16:38.273Z,3.97
2023-06-10T02:19:43.887Z,5.82
2023-06-10T02:22:46.190Z,2.97
2023-06-10T02:25:49.303Z,3.70
2023-06-10T02:28:51.550Z,6.22
2023-06-10T02:31:54.009Z,6.85
2023-06-10T02:34:56.564Z,6.50
2023-06-10T02:38:00.768Z,4.18
2023-06-10T02:41:04.688Z,4.00
2023-06-10T02:44:07.580Z,4.77
2023-06-10T02:47:09.821Z,6.57
2023-06-10T02:50:13.628Z,3.72
2023-06-10T02:53:26.787Z,2.85
2023-06-10T02:56:37.477Z,3.47
2023-06-10T02:59:42.079Z,5.70
2023-06-10T03:02:46.964Z,5.55
2023-06-10T03:05:50.289Z,6.43
2023-06-10T03:08:54.793Z,7.53
2023-06-10T03:11:57.164Z,5.43
2023-06-10T03:14:59.666Z,6.40
2023-06-10T03:18:03.957Z,6.18
2023-06-10T03:21:06.318Z,3.60
2023-06-10T03:24:08.790Z,4.43
2023-06-10T03:27:12.061Z,7.53
2023-06-10T03:30:16.663Z,8.40
2023-06-10T03:33:21.067Z,4.50
2023-06-10T03:36:23.270Z,4.47
2023-06-10T03:39:25.664Z,3.35
2023-06-10T03:42:28.456Z,5.47
2023-06-10T03:45:31.165Z,6.70
2023-06-10T03:48:34.178Z,4.68
2023-06-10T03:51:37.614Z,3.42
2023-06-10T03:54:39.832Z,5.15
2023-06-10T03:57:42.144Z,5.65
2023-06-10T04:00:44.350Z,3.80
2023-06-10T04:03:46.519Z,2.88
2023-06-10T04:06:49.852Z,4.83
2023-06-10T04:09:52.103Z,4.35
2023-06-10T04:12:54.995Z,2.95
2023-06-10T04:15:59.051Z,6.63
2023-06-10T04:19:01.845Z,6.75
2023-06-10T04:22:05.091Z,4.13
2023-06-10T04:25:10.818Z,3.28
2023-06-10T04:28:14.844Z,4.38
2023-06-10T04:31:18.409Z,3.42
2023-06-10T04:34:20.789Z,2.60
2023-06-10T04:37:23.050Z,3.83
2023-06-10T04:40:25.910Z,3.80
2023-06-10T04:43:29.487Z,3.05
2023-06-10T04:46:33.168Z,4.63
2023-06-10T04:49:36.964Z,2.95
2023-06-10T04:52:39.144Z,3.30
2023-06-10T04:55:41.787Z,3.35
2023-06-10T04:58:44.039Z,5.55
2023-06-10T05:01:46.411Z,3.85
2023-06-10T05:04:48.641Z,4.18
2023-06-10T05:07:50.910Z,2.50
2023-06-10T05:10:53.356Z,3.17
2023-06-10T05:13:55.530Z,2.50
2023-06-10T05:16:58.117Z,4.00
2023-06-10T05:20:00.609Z,1.50
2023-06-10T05:23:02.750Z,2.53
2023-06-10T05:26:04.924Z,2.53
2023-06-10T05:29:07.169Z,2.47
2023-06-10T05:32:10.035Z,3.83
2023-06-10T05:35:12.611Z,3.25
2023-06-10T05:38:15.235Z,4.93
2023-06-10T05:41:17.446Z,2.00
2023-06-10T05:44:19.674Z,2.58
2023-06-10T05:47:21.883Z,1.93
2023-06-10T05:50:25.796Z,3.42
2023-06-10T05:53:27.983Z,2.45
2023-06-10T05:56:30.459Z,3.42
2023-06-10T05:59:32.768Z,6.22
2023-06-10T06:02:35.047Z,3.00
2023-06-10T06:05:38.542Z,5.05
2023-06-10T06:08:40.714Z,2.83
2023-06-10T06:11:42.920Z,3.28
2023-06-10T06:14:45.896Z,3.38
2023-06-10T06:17:48.191Z,5.33
2023-06-10T06:20:50.900Z,3.63
2023-06-10T06:23:53.237Z,2.13
2023-06-10T06:26:55.628Z,2.75
2023-06-10T06:29:57.897Z,2.40
2023-06-10T06:33:00.778Z,2.70
2023-06-10T06:36:03.098Z,3.28
2023-06-10T06:39:05.315Z,2.93
2023-06-10T06:42:08.344Z,3.28
2023-06-10T06:45:23.485Z,2.25
2023-06-10T06:48:25.828Z,4.43
2023-06-10T06:51:28.153Z,4.40
2023-06-10T06:54:31.691Z,3.30
2023-06-10T06:57:33.997Z,3.22
2023-06-10T07:00:36.223Z,3.38
2023-06-10T07:03:38.519Z,2.30
2023-06-10T07:06:40.863Z,4.63
2023-06-10T07:09:45.847Z,2.80
2023-06-10T07:12:48.053Z,2.80
2023-06-10T07:15:50.634Z,3.10
2023-06-10T07:18:53.945Z,2.93
2023-06-10T07:21:56.175Z,2.47
2023-06-10T07:24:59.000Z,3.78
2023-06-10T07:28:01.194Z,3.72
2023-06-10T07:31:03.449Z,3.88
2023-06-10T07:34:05.731Z,3.72
2023-06-10T07:37:07.988Z,5.00
2023-06-10T07:40:10.498Z,3.37
2023-06-10T07:43:12.712Z,3.78
2023-06-10T07:46:14.891Z,3.67
2023-06-10T07:49:17.072Z,3.07
2023-06-10T07:52:19.294Z,3.13
2023-06-10T07:55:21.590Z,3.95
2023-06-10T07:58:23.874Z,3.40
2023-06-10T08:01:26.069Z,3.83
2023-06-10T08:04:28.351Z,3.92
2023-06-10T08:07:31.955Z,5.03
2023-06-10T08:10:34.175Z,5.63
2023-06-10T08:13:36.375Z,4.57
2023-06-10T08:16:38.649Z,3.88
2023-06-10T08:19:40.817Z,4.17
2023-06-10T08:22:43.038Z,5.38
2023-06-10T08:25:45.308Z,5.78
2023-06-10T08:28:47.496Z,6.70
2023-06-10T08:31:49.822Z,7.10
2023-06-10T08:34:52.095Z,8.15
2023-06-10T08:37:54.367Z,7.13
2023-06-10T08:41:01.797Z,7.30
2023-06-10T08:44:27.936Z,8.07
2023-06-10T08:47:32.538Z,9.35
2023-06-10T08:50:40.028Z,7.37
2023-06-10T08:53:50.587Z,6.32
2023-06-10T08:56:54.699Z,8.13
2023-06-10T08:59:58.363Z,7.38
2023-06-10T09:03:04.580Z,7.80
2023-06-10T09:06:07.586Z,7.18
2023-06-10T09:09:09.907Z,7.40
2023-06-10T09:12:14.402Z,7.77
2023-06-10T09:15:18.322Z,7.97
2023-06-10T09:18:21.459Z,8.98
2023-06-10T09:21:24.202Z,7.43
2023-06-10T09:24:26.829Z,8.77
2023-06-10T09:27:33.147Z,7.65
2023-06-10T09:30:36.226Z,7.43
2023-06-10T09:33:40.492Z,9.27
2023-06-10T09:36:42.747Z,7.82
2023-06-10T09:39:45.024Z,8.77
2023-06-10T09:42:50.172Z,9.10
2023-06-10T09:45:55.264Z,13.13
2023-06-10T09:48:58.836Z,11.82
2023-06-10T09:52:01.015Z,11.63
2023-06-10T09:55:03.812Z,9.45
2023-06-10T09:58:06.154Z,11.40
2023-06-10T10:01:15.660Z,9.27
2023-06-10T10:04:24.830Z,9.75
2023-06-10T10:07:27.012Z,9.23
2023-06-10T10:10:29.402Z,9.48
2023-06-10T10:13:37.179Z,10.00
2023-06-10T10:16:44.273Z,11.15
2023-06-10T10:19:52.078Z,10.73
2023-06-10T10:22:57.926Z,11.10
2023-06-10T10:26:08.701Z,11.15
2023-06-10T10:29:29.138Z,11.15
2023-06-10T10:32:43.916Z,11.93
2023-06-10T10:35:47.472Z,11.38
2023-06-10T10:38:53.165Z,10.73
2023-06-10T10:41:56.227Z,12.65
2023-06-10T10:44:58.739Z,9.73
2023-06-10T10:48:06.667Z,10.57
2023-06-10T10:51:10.036Z,10.23
2023-06-10T10:54:16.063Z,9.73
2023-06-10T10:57:19.565Z,8.60
2023-06-10T11:00:33.040Z,8.27
2023-06-10T11:03:48.026Z,8.95
2023-06-10T11:06:54.848Z,8.15
2023-06-10T11:10:02.910Z,8.55
2023-06-10T11:13:15.089Z,8.95
2023-06-10T11:16:20.810Z,9.83
2023-06-10T11:19:33.790Z,8.98
2023-06-10T11:23:01.960Z,8.02
2023-06-10T11:26:12.131Z,8.27
2023-06-10T11:29:16.734Z,7.85
2023-06-10T11:32:19.098Z,7.75
2023-06-10T11:35:22.460Z,7.68
2023-06-10T11:38:24.749Z,6.70
2023-06-10T11:41:27.965Z,7.00
2023-06-10T11:44:31.077Z,7.13
2023-06-10T11:47:33.344Z,7.40
2023-06-10T11:50:35.637Z,6.68
2023-06-10T11:53:37.924Z,6.10
2023-06-10T11:56:40.127Z,6.50
2023-06-10T11:59:42.403Z,5.75
2023-06-10T12:02:44.750Z,5.60
2023-06-10T12:06:01.470Z,5.30
2023-06-10T12:09:18.436Z,5.50
2023-06-10T12:12:26.618Z,5.47
2023-06-10T12:15:30.077Z,4.65
2023-06-10T12:18:32.254Z,3.93
2023-06-10T12:21:36.487Z,4.95
2023-06-10T12:25:02.549Z,3.80
2023-06-10T12:28:05.331Z,4.07
2023-06-10T12:31:11.362Z,3.55
2023-06-10T12:34:13.535Z,3.90
2023-06-10T12:37:16.445Z,4.28
2023-06-10T12:40:18.838Z,3.42
2023-06-10T12:43:22.201Z,3.60
2023-06-10T12:46:25.540Z,3.85
2023-06-10T12:49:27.968Z,2.77
2023-06-10T12:52:30.299Z,2.97
2023-06-10T12:55:33.539Z,3.58
2023-06-10T12:58:35.740Z,3.00
2023-06-10T13:01:39.177Z,3.13
2023-06-10T13:04:41.552Z,3.40
2023-06-10T13:07:45.495Z,2.83
2023-06-10T13:10:47.680Z,3.05
2023-06-10T13:13:49.944Z,3.70
2023-06-10T13:16:52.215Z,2.45
2023-06-10T13:19:54.467Z,2.40
2023-06-10T13:22:56.858Z,2.50
2023-06-10T13:25:59.252Z,3.10
2023-06-10T13:29:01.407Z,2.60
2023-06-10T13:32:03.651Z,3.20
2023-06-10T13:35:06.498Z,2.83
2023-06-10T13:38:08.758Z,3.45
2023-06-10T13:41:11.240Z,2.95
2023-06-10T13:44:13.417Z,3.65
2023-06-10T13:47:16.185Z,3.45
2023-06-10T13:50:18.472Z,2.80
2023-06-10T13:53:20.748Z,2.72
2023-06-10T13:56:22.923Z,3.10
2023-06-10T13:59:25.093Z,3.67
2023-06-10T14:02:27.430Z,4.38
2023-06-10T14:05:31.886Z,3.35
2023-06-10T14:08:34.549Z,4.57
2023-06-10T14:11:36.704Z,5.07
2023-06-10T14:14:38.897Z,3.45
2023-06-10T14:17:41.134Z,3.75
2023-06-10T14:20:43.393Z,5.17
2023-06-10T14:23:46.579Z,3.13
2023-06-10T14:26:48.901Z,3.40
2023-06-10T14:29:51.126Z,3.77
2023-06-10T14:32:53.431Z,3.50
2023-06-10T14:35:55.808Z,3.25
2023-06-10T14:38:58.294Z,3.35
2023-06-10T14:42:00.538Z,3.15
2023-06-10T14:45:02.851Z,3.33
2023-06-10T14:48:05.843Z,3.20
2023-06-10T14:51:08.034Z,3.10
2023-06-10T14:54:10.393Z,3.20
2023-06-10T14:57:12.567Z,3.25
2023-06-10T15:00:16.553Z,3.40
2023-06-10T15:03:18.755Z,3.58
2023-06-10T15:06:23.784Z,3.58
2023-06-10T15:09:26.130Z,3.30
2023-06-10T15:12:28.996Z,3.40
2023-06-10T15:15:31.147Z,3.45
2023-06-10T15:18:34.244Z,2.47
2023-06-10T15:21:37.395Z,2.57
2023-06-10T15:24:39.939Z,4.88
2023-06-10T15:27:42.132Z,3.38
2023-06-10T15:30:44.426Z,2.10
2023-06-10T15:33:47.696Z,2.28
2023-06-10T15:36:50.285Z,1.85
2023-06-10T15:39:52.470Z,2.20
2023-06-10T15:42:54.646Z,3.35
2023-06-10T15:45:56.845Z,5.28
2023-06-10T15:48:59.126Z,1.70
2023-06-10T15:52:01.354Z,3.67
2023-06-10T15:55:03.836Z,3.28
2023-06-10T15:58:06.095Z,3.40
2023-06-10T16:01:10.298Z,2.73
2023-06-10T16:04:12.796Z,1.33
2023-06-10T16:07:15.013Z,2.50
2023-06-10T16:10:17.281Z,5.50
2023-06-10T16:13:19.560Z,2.47
2023-06-10T16:16:21.817Z,3.95
2023-06-10T16:19:27.853Z,2.47
2023-06-10T16:22:30.084Z,2.00
2023-06-10T16:25:34.843Z,3.15
2023-06-10T16:28:37.137Z,2.80
2023-06-10T16:31:39.368Z,2.77
2023-06-10T16:34:42.855Z,4.07
2023-06-10T16:37:45.675Z,3.95
2023-06-10T16:40:47.911Z,4.05
2023-06-10T16:43:50.145Z,2.53
2023-06-10T16:46:52.441Z,3.00
2023-06-10T16:49:54.686Z,3.67
2023-06-10T16:53:00.270Z,2.90
2023-06-10T16:56:03.422Z,3.45
2023-06-10T16:59:06.937Z,4.10
2023-06-10T17:02:09.289Z,3.50
2023-06-10T17:05:12.225Z,3.17
2023-06-10T17:08:14.724Z,5.10
2023-06-10T17:11:17.053Z,4.88
2023-06-10T17:14:19.305Z,2.97
2023-06-10T17:17:21.739Z,3.58
2023-06-10T17:20:24.052Z,2.53
2023-06-10T17:23:26.361Z,3.10
2023-06-10T17:26:28.614Z,4.00
2023-06-10T17:29:33.519Z,4.22
2023-06-10T17:32:35.854Z,3.17
2023-06-10T17:35:38.471Z,3.63
2023-06-10T17:38:40.809Z,5.38
2023-06-10T17:41:43.058Z,4.30
2023-06-10T17:44:45.443Z,3.30
2023-06-10T17:47:47.677Z,3.83
2023-06-10T17:50:49.908Z,3.10
2023-06-10T17:53:52.268Z,3.53
2023-06-10T17:56:55.243Z,4.03
2023-06-10T17:59:57.550Z,5.43
2023-06-10T18:02:59.886Z,3.80
2023-06-10T18:06:02.408Z,6.05
2023-06-10T18:09:04.652Z,3.40
2023-06-10T18:12:07.623Z,4.57
2023-06-10T18:15:10.695Z,5.38
2023-06-10T18:18:13.117Z,4.38
2023-06-10T18:21:15.578Z,7.15
2023-06-10T18:24:17.921Z,6.17
2023-06-10T18:27:20.211Z,6.45
2023-06-10T18:30:24.809Z,5.85
2023-06-10T18:33:27.933Z,5.83
2023-06-10T18:36:30.353Z,4.60
2023-06-10T18:39:34.221Z,6.15
2023-06-10T18:42:36.405Z,4.85
2023-06-10T18:45:43.322Z,4.63
2023-06-10T18:48:48.209Z,4.80
2023-06-10T18:51:50.552Z,4.18
2023-06-10T18:54:52.796Z,6.97
2023-06-10T18:57:55.036Z,8.65
2023-06-10T19:00:57.682Z,6.03
2023-06-10T19:04:00.999Z,7.20
2023-06-10T19:07:03.536Z,6.18
2023-06-10T19:10:06.526Z,6.00
2023-06-10T19:13:09.121Z,4.43
2023-06-10T19:16:11.269Z,5.38
2023-06-10T19:19:13.564Z,7.75
2023-06-10T19:22:15.742Z,5.13
2023-06-10T19:25:20.149Z,8.53
2023-06-10T19:28:22.296Z,6.90
2023-06-10T19:31:24.554Z,4.72
2023-06-10T19:34:27.325Z,7.50
2023-06-10T19:37:29.493Z,8.32
2023-06-10T19:40:32.722Z,4.97
2023-06-10T19:43:34.969Z,6.47
2023-06-10T19:46:37.205Z,6.35
2023-06-10T19:49:39.373Z,4.13
2023-06-10T19:52:41.575Z,5.03
2023-06-10T19:55:43.815Z,4.67
2023-06-10T19:58:47.485Z,4.80
2023-06-10T20:01:49.755Z,5.95
2023-06-10T20:04:51.980Z,5.97
2023-06-10T20:07:54.154Z,7.80
2023-06-10T20:10:56.375Z,6.20
2023-06-10T20:13:58.603Z,8.95
2023-06-10T20:17:00.749Z,6.88
2023-06-10T20:20:03.335Z,5.50
2023-06-10T20:23:05.581Z,3.83
2023-06-10T20:26:07.750Z,5.23
2023-06-10T20:29:09.971Z,4.35
2023-06-10T20:32:14.838Z,4.45
2023-06-10T20:35:17.108Z,5.70
2023-06-10T20:38:19.372Z,4.20
2023-06-10T20:41:22.720Z,5.32
2023-06-10T20:44:25.036Z,7.00
2023-06-10T20:47:27.214Z,4.57
2023-06-10T20:50:31.751Z,5.85
2023-06-10T20:53:33.911Z,4.75
2023-06-10T20:56:36.281Z,4.43
2023-06-10T20:59:38.500Z,4.05
2023-06-10T21:02:40.756Z,5.85
2023-06-10T21:05:43.016Z,3.53
2023-06-10T21:08:45.473Z,4.10
2023-06-10T21:11:47.625Z,5.10
2023-06-10T21:14:49.789Z,4.53
2023-06-10T21:17:52.080Z,5.03
2023-06-10T21:20:54.387Z,3.53
2023-06-10T21:23:56.784Z,4.85
2023-06-10T21:26:59.860Z,4.90
2023-06-10T21:30:03.140Z,3.58
2023-06-10T21:33:05.848Z,4.88
2023-06-10T21:36:08.059Z,5.83
2023-06-10T21:39:10.381Z,5.00
2023-06-10T21:42:12.827Z,4.13
2023-06-10T21:45:15.067Z,4.97
2023-06-10T21:48:17.267Z,4.80
2023-06-10T21:51:19.633Z,6.05
2023-06-10T21:54:21.802Z,4.75
2023-06-10T21:57:24.118Z,6.47
2023-06-10T22:00:26.349Z,5.00
2023-06-10T22:03:28.688Z,5.10
2023-06-10T22:06:31.980Z,6.30
2023-06-10T22:09:34.206Z,6.22
2023-06-10T22:12:36.623Z,4.40
2023-06-10T22:15:38.787Z,4.93
2023-06-10T22:18:41.326Z,6.05
2023-06-10T22:21:43.522Z,6.32
2023-06-10T22:24:50.620Z,4.63
2023-06-10T22:27:52.907Z,4.60
2023-06-10T22:30:55.592Z,5.82
2023-06-10T22:33:57.927Z,4.47
2023-06-10T22:37:00.165Z,5.13
2023-06-10T22:40:03.689Z,7.38
2023-06-10T22:43:05.922Z,4.07
2023-06-10T22:46:08.128Z,6.30
2023-06-10T22:49:12.727Z,3.63
2023-06-10T22:52:14.932Z,6.85
2023-06-10T22:55:17.193Z,5.13
2023-06-10T22:58:21.210Z,7.00
2023-06-10T23:01:23.554Z,5.47
2023-06-10T23:04:25.850Z,5.88
2023-06-10T23:07:28.139Z,4.93
2023-06-10T23:10:30.464Z,4.82
2023-06-10T23:13:32.666Z,7.43
2023-06-10T23:16:34.931Z,6.80
2023-06-10T23:19:41.754Z,6.43
2023-06-10T23:22:44.120Z,5.88
2023-06-10T23:25:46.370Z,6.15
2023-06-10T23:28:48.551Z,5.20
2023-06-10T23:31:50.947Z,5.70
2023-06-10T23:34:53.245Z,4.97
2023-06-10T23:37:55.660Z,7.20
2023-06-10T23:40:57.882Z,4.95
2023-06-10T23:44:00.108Z,8.27
2023-06-10T23:47:02.338Z,5.60
2023-06-10T23:50:05.520Z,5.57
2023-06-10T23:53:07.805Z,7.32
2023-06-10T23:56:10.097Z,6.68
2023-06-10T23:59:12.276Z,5.20
